sensor_id;sensor_type;location;lat;lon;timestamp;temperature;humidity
35043;DHT22;21230;51.170;17.024;2023-03-04T00:02:29;0.20;99.90
35043;DHT22;21230;51.170;17.024;2023-03-04T00:08:44;0.20;99.90
35043;DHT22;21230;51.170;17.024;2023-03-04T00:11:48;0.30;99.90
35043;DHT22;21230;51.170;17.024;2023-03-04T00:14:51;0.30;99.90
35043;DHT22;21230;51.170;17.024;2023-03-04T00:24:03;0.30;99.90
35043;DHT22;21230;51.170;17.024;2023-03-04T00:27:27;0.30;99.90
35043;DHT22;21230;51.170;17.024;2023-03-04T00:39:58;0.40;99.90
35043;DHT22;21230;51.170;17.024;2023-03-04T00:42:40;0.40;99.90
35043;DHT22;21230;51.170;17.024;2023-03-04T00:55:23;0.50;99.90
35043;DHT22;21230;51.170;17.024;2023-03-04T01:08:30;0.60;99.90
35043;DHT22;21230;51.170;17.024;2023-03-04T01:11:55;0.70;99.90
35043;DHT22;21230;51.170;17.024;2023-03-04T01:31:24;0.70;99.90
35043;DHT22;21230;51.170;17.024;2023-03-04T01:34:12;0.80;99.90
35043;DHT22;21230;51.170;17.024;2023-03-04T01:40:54;0.80;99.90
35043;DHT22;21230;51.170;17.024;2023-03-04T01:44:07;0.80;99.90
35043;DHT22;21230;51.170;17.024;2023-03-04T02:03:53;0.90;99.90
35043;DHT22;21230;51.170;17.024;2023-03-04T02:06:19;1.00;99.90
35043;DHT22;21230;51.170;17.024;2023-03-04T02:08:45;0.90;99.90
35043;DHT22;21230;51.170;17.024;2023-03-04T02:11:13;1.00;99.90
35043;DHT22;21230;51.170;17.024;2023-03-04T02:13:39;1.00;99.90
35043;DHT22;21230;51.170;17.024;2023-03-04T02:16:06;1.00;99.90
35043;DHT22;21230;51.170;17.024;2023-03-04T02:18:32;1.00;99.90
35043;DHT22;21230;51.170;17.024;2023-03-04T02:41:21;1.00;99.90
35043;DHT22;21230;51.170;17.024;2023-03-04T02:44:30;1.00;99.90
35043;DHT22;21230;51.170;17.024;2023-03-04T02:54:23;1.00;99.90
35043;DHT22;21230;51.170;17.024;2023-03-04T02:59:42;1.00;99.90
35043;DHT22;21230;51.170;17.024;2023-03-04T03:08:23;1.10;99.90
35043;DHT22;21230;51.170;17.024;2023-03-04T03:10:49;1.10;99.90
35043;DHT22;21230;51.170;17.024;2023-03-04T03:13:15;1.00;99.90
35043;DHT22;21230;51.170;17.024;2023-03-04T03:15:41;1.10;99.90
35043;DHT22;21230;51.170;17.024;2023-03-04T03:18:10;1.10;99.90
35043;DHT22;21230;51.170;17.024;2023-03-04T03:20:36;1.10;99.90
35043;DHT22;21230;51.170;17.024;2023-03-04T03:23:02;1.10;99.90
35043;DHT22;21230;51.170;17.024;2023-03-04T03:25:28;1.00;99.90
35043;DHT22;21230;51.170;17.024;2023-03-04T03:27:53;1.00;99.90
35043;DHT22;21230;51.170;17.024;2023-03-04T03:30:19;1.10;99.90
35043;DHT22;21230;51.170;17.024;2023-03-04T03:32:45;1.10;99.90
35043;DHT22;21230;51.170;17.024;2023-03-04T03:35:11;1.10;99.90
35043;DHT22;21230;51.170;17.024;2023-03-04T03:37:37;1.10;99.90
35043;DHT22;21230;51.170;17.024;2023-03-04T03:40:03;1.10;99.90
35043;DHT22;21230;51.170;17.024;2023-03-04T03:42:29;1.10;99.90
35043;DHT22;21230;51.170;17.024;2023-03-04T03:44:55;1.10;99.90
35043;DHT22;21230;51.170;17.024;2023-03-04T03:47:21;1.10;99.90
35043;DHT22;21230;51.170;17.024;2023-03-04T03:49:47;1.10;99.90
35043;DHT22;21230;51.170;17.024;2023-03-04T03:52:13;1.10;99.90
35043;DHT22;21230;51.170;17.024;2023-03-04T03:54:39;1.10;99.90
35043;DHT22;21230;51.170;17.024;2023-03-04T03:57:05;1.10;99.90
35043;DHT22;21230;51.170;17.024;2023-03-04T03:59:31;1.10;99.90
35043;DHT22;21230;51.170;17.024;2023-03-04T04:01:57;1.10;99.90
35043;DHT22;21230;51.170;17.024;2023-03-04T04:04:23;1.10;99.90
35043;DHT22;21230;51.170;17.024;2023-03-04T04:07:19;1.10;99.90
35043;DHT22;21230;51.170;17.024;2023-03-04T04:17:44;1.10;99.90
35043;DHT22;21230;51.170;17.024;2023-03-04T04:20:42;1.20;99.90
35043;DHT22;21230;51.170;17.024;2023-03-04T04:23:52;1.20;99.90
35043;DHT22;21230;51.170;17.024;2023-03-04T04:36:41;1.30;99.90
35043;DHT22;21230;51.170;17.024;2023-03-04T04:39:50;1.30;99.90
35043;DHT22;21230;51.170;17.024;2023-03-04T04:42:19;1.30;99.90
35043;DHT22;21230;51.170;17.024;2023-03-04T04:44:45;1.30;99.90
35043;DHT22;21230;51.170;17.024;2023-03-04T04:47:44;1.30;99.90
35043;DHT22;21230;51.170;17.024;2023-03-04T04:50:29;1.30;99.90
35043;DHT22;21230;51.170;17.024;2023-03-04T04:53:27;1.30;99.90
35043;DHT22;21230;51.170;17.024;2023-03-04T04:55:53;1.30;99.90
35043;DHT22;21230;51.170;17.024;2023-03-04T04:58:48;1.30;99.90
35043;DHT22;21230;51.170;17.024;2023-03-04T05:01:43;1.30;99.90
35043;DHT22;21230;51.170;17.024;2023-03-04T05:04:24;1.40;99.90
35043;DHT22;21230;51.170;17.024;2023-03-04T05:10:39;1.40;99.90
35043;DHT22;21230;51.170;17.024;2023-03-04T05:13:29;1.40;99.90
35043;DHT22;21230;51.170;17.024;2023-03-04T05:16:09;1.40;99.90
35043;DHT22;21230;51.170;17.024;2023-03-04T05:19:10;1.40;99.90
35043;DHT22;21230;51.170;17.024;2023-03-04T05:22:07;1.50;99.90
35043;DHT22;21230;51.170;17.024;2023-03-04T05:25:05;1.50;99.90
35043;DHT22;21230;51.170;17.024;2023-03-04T05:28:09;1.50;99.90
35043;DHT22;21230;51.170;17.024;2023-03-04T05:30:58;1.50;99.90
35043;DHT22;21230;51.170;17.024;2023-03-04T05:33:35;1.60;99.90
35043;DHT22;21230;51.170;17.024;2023-03-04T05:36:42;1.60;99.90
35043;DHT22;21230;51.170;17.024;2023-03-04T05:39:23;1.60;99.90
35043;DHT22;21230;51.170;17.024;2023-03-04T05:45:38;1.60;99.90
35043;DHT22;21230;51.170;17.024;2023-03-04T05:48:26;1.60;99.90
35043;DHT22;21230;51.170;17.024;2023-03-04T05:54:09;1.70;99.90
35043;DHT22;21230;51.170;17.024;2023-03-04T05:57:01;1.70;99.90
35043;DHT22;21230;51.170;17.024;2023-03-04T05:59:32;1.70;99.90
35043;DHT22;21230;51.170;17.024;2023-03-04T06:02:04;1.70;99.90
35043;DHT22;21230;51.170;17.024;2023-03-04T06:13:49;1.80;99.90
35043;DHT22;21230;51.170;17.024;2023-03-04T06:16:15;1.80;99.90
35043;DHT22;21230;51.170;17.024;2023-03-04T06:18:41;1.80;99.90
35043;DHT22;21230;51.170;17.024;2023-03-04T06:21:06;1.80;99.90
35043;DHT22;21230;51.170;17.024;2023-03-04T06:23:32;1.80;99.90
35043;DHT22;21230;51.170;17.024;2023-03-04T06:25:58;1.80;99.90
35043;DHT22;21230;51.170;17.024;2023-03-04T06:28:24;1.90;99.90
35043;DHT22;21230;51.170;17.024;2023-03-04T06:30:53;1.80;99.90
35043;DHT22;21230;51.170;17.024;2023-03-04T06:33:19;1.90;99.90
35043;DHT22;21230;51.170;17.024;2023-03-04T06:35:44;1.80;99.90
35043;DHT22;21230;51.170;17.024;2023-03-04T06:38:10;1.90;99.90
35043;DHT22;21230;51.170;17.024;2023-03-04T06:40:36;1.90;99.90
35043;DHT22;21230;51.170;17.024;2023-03-04T06:43:01;1.90;99.90
35043;DHT22;21230;51.170;17.024;2023-03-04T06:45:27;1.90;99.90
35043;DHT22;21230;51.170;17.024;2023-03-04T06:47:52;1.90;99.90
35043;DHT22;21230;51.170;17.024;2023-03-04T06:50:18;1.90;99.90
35043;DHT22;21230;51.170;17.024;2023-03-04T06:52:44;1.90;99.90
35043;DHT22;21230;51.170;17.024;2023-03-04T06:55:09;1.90;99.90
35043;DHT22;21230;51.170;17.024;2023-03-04T06:57:37;1.90;99.90
35043;DHT22;21230;51.170;17.024;2023-03-04T07:00:03;1.90;99.90
35043;DHT22;21230;51.170;17.024;2023-03-04T07:02:29;1.90;99.90
35043;DHT22;21230;51.170;17.024;2023-03-04T07:04:55;2.00;99.90
35043;DHT22;21230;51.170;17.024;2023-03-04T07:07:20;2.00;99.90
35043;DHT22;21230;51.170;17.024;2023-03-04T07:09:46;2.00;99.90
35043;DHT22;21230;51.170;17.024;2023-03-04T07:12:12;2.00;99.90
35043;DHT22;21230;51.170;17.024;2023-03-04T07:14:37;2.00;99.90
35043;DHT22;21230;51.170;17.024;2023-03-04T07:17:03;2.00;99.90
35043;DHT22;21230;51.170;17.024;2023-03-04T07:19:29;1.90;99.90
35043;DHT22;21230;51.170;17.024;2023-03-04T07:21:54;2.00;99.90
35043;DHT22;21230;51.170;17.024;2023-03-04T07:24:20;2.00;99.90
35043;DHT22;21230;51.170;17.024;2023-03-04T07:26:46;2.00;99.90
35043;DHT22;21230;51.170;17.024;2023-03-04T07:29:12;2.00;99.90
35043;DHT22;21230;51.170;17.024;2023-03-04T07:31:38;2.00;99.90
35043;DHT22;21230;51.170;17.024;2023-03-04T07:34:06;2.00;99.90
35043;DHT22;21230;51.170;17.024;2023-03-04T07:36:34;2.00;99.90
35043;DHT22;21230;51.170;17.024;2023-03-04T07:39:00;2.10;99.90
35043;DHT22;21230;51.170;17.024;2023-03-04T07:41:27;2.10;99.90
35043;DHT22;21230;51.170;17.024;2023-03-04T07:43:58;2.10;99.90
35043;DHT22;21230;51.170;17.024;2023-03-04T07:46:24;2.10;99.90
35043;DHT22;21230;51.170;17.024;2023-03-04T07:48:50;2.10;99.90
35043;DHT22;21230;51.170;17.024;2023-03-04T07:51:21;2.10;99.90
35043;DHT22;21230;51.170;17.024;2023-03-04T07:53:49;2.10;99.90
35043;DHT22;21230;51.170;17.024;2023-03-04T07:56:18;2.10;99.90
35043;DHT22;21230;51.170;17.024;2023-03-04T07:58:47;2.10;99.90
35043;DHT22;21230;51.170;17.024;2023-03-04T08:01:25;2.10;99.90
35043;DHT22;21230;51.170;17.024;2023-03-04T08:03:51;2.10;99.90
35043;DHT22;21230;51.170;17.024;2023-03-04T08:09:51;2.10;99.90
35043;DHT22;21230;51.170;17.024;2023-03-04T08:15:43;2.10;99.90
35043;DHT22;21230;51.170;17.024;2023-03-04T08:18:09;2.10;99.90
35043;DHT22;21230;51.170;17.024;2023-03-04T08:20:35;2.00;99.90
35043;DHT22;21230;51.170;17.024;2023-03-04T08:23:01;2.10;99.90
35043;DHT22;21230;51.170;17.024;2023-03-04T08:25:27;2.10;99.90
35043;DHT22;21230;51.170;17.024;2023-03-04T08:27:53;2.10;99.90
35043;DHT22;21230;51.170;17.024;2023-03-04T08:30:19;2.10;99.90
35043;DHT22;21230;51.170;17.024;2023-03-04T08:32:44;2.10;99.90
35043;DHT22;21230;51.170;17.024;2023-03-04T08:35:10;2.20;99.90
35043;DHT22;21230;51.170;17.024;2023-03-04T08:37:36;2.20;99.90
35043;DHT22;21230;51.170;17.024;2023-03-04T08:40:02;2.20;99.90
35043;DHT22;21230;51.170;17.024;2023-03-04T08:42:28;2.20;99.90
35043;DHT22;21230;51.170;17.024;2023-03-04T08:44:54;2.30;99.90
35043;DHT22;21230;51.170;17.024;2023-03-04T08:47:20;2.30;99.90
35043;DHT22;21230;51.170;17.024;2023-03-04T08:49:45;2.30;99.90
35043;DHT22;21230;51.170;17.024;2023-03-04T08:52:11;2.30;99.90
35043;DHT22;21230;51.170;17.024;2023-03-04T08:54:37;2.40;99.90
35043;DHT22;21230;51.170;17.024;2023-03-04T08:57:03;2.40;99.90
35043;DHT22;21230;51.170;17.024;2023-03-04T08:59:29;2.40;99.90
35043;DHT22;21230;51.170;17.024;2023-03-04T09:01:56;2.40;99.90
35043;DHT22;21230;51.170;17.024;2023-03-04T09:04:22;2.50;99.90
35043;DHT22;21230;51.170;17.024;2023-03-04T09:06:49;2.50;99.90
35043;DHT22;21230;51.170;17.024;2023-03-04T09:09:15;2.50;99.90
35043;DHT22;21230;51.170;17.024;2023-03-04T09:11:41;2.50;99.90
35043;DHT22;21230;51.170;17.024;2023-03-04T09:14:07;2.60;99.90
35043;DHT22;21230;51.170;17.024;2023-03-04T09:16:33;2.60;99.90
35043;DHT22;21230;51.170;17.024;2023-03-04T09:18:59;2.70;99.90
35043;DHT22;21230;51.170;17.024;2023-03-04T09:21:26;2.70;99.90
35043;DHT22;21230;51.170;17.024;2023-03-04T09:23:51;2.80;99.90
35043;DHT22;21230;51.170;17.024;2023-03-04T09:26:23;2.70;99.90
35043;DHT22;21230;51.170;17.024;2023-03-04T09:28:51;2.80;99.90
35043;DHT22;21230;51.170;17.024;2023-03-04T09:31:17;2.80;99.90
35043;DHT22;21230;51.170;17.024;2023-03-04T09:33:43;2.80;99.90
35043;DHT22;21230;51.170;17.024;2023-03-04T09:36:11;2.80;99.90
35043;DHT22;21230;51.170;17.024;2023-03-04T09:38:38;2.80;99.90
35043;DHT22;21230;51.170;17.024;2023-03-04T09:41:09;2.90;99.90
35043;DHT22;21230;51.170;17.024;2023-03-04T09:43:37;2.80;99.90
35043;DHT22;21230;51.170;17.024;2023-03-04T09:46:11;2.80;99.90
35043;DHT22;21230;51.170;17.024;2023-03-04T09:48:49;2.80;99.90
35043;DHT22;21230;51.170;17.024;2023-03-04T09:51:20;2.80;99.90
35043;DHT22;21230;51.170;17.024;2023-03-04T09:53:57;2.80;99.90
35043;DHT22;21230;51.170;17.024;2023-03-04T09:56:26;2.80;99.90
35043;DHT22;21230;51.170;17.024;2023-03-04T10:06:39;2.80;99.90
35043;DHT22;21230;51.170;17.024;2023-03-04T10:09:16;2.80;99.90
35043;DHT22;21230;51.170;17.024;2023-03-04T10:11:47;2.80;99.90
35043;DHT22;21230;51.170;17.024;2023-03-04T10:16:56;2.90;99.90
35043;DHT22;21230;51.170;17.024;2023-03-04T10:21:52;3.00;99.90
35043;DHT22;21230;51.170;17.024;2023-03-04T10:24:27;3.00;99.90
35043;DHT22;21230;51.170;17.024;2023-03-04T10:27:04;3.00;99.90
35043;DHT22;21230;51.170;17.024;2023-03-04T10:29:32;3.10;99.90
35043;DHT22;21230;51.170;17.024;2023-03-04T10:31:58;3.10;99.90
35043;DHT22;21230;51.170;17.024;2023-03-04T10:34:24;3.20;99.90
35043;DHT22;21230;51.170;17.024;2023-03-04T10:37:02;3.20;99.90
35043;DHT22;21230;51.170;17.024;2023-03-04T10:39:32;3.20;99.90
35043;DHT22;21230;51.170;17.024;2023-03-04T10:41:59;3.30;99.90
35043;DHT22;21230;51.170;17.024;2023-03-04T10:44:27;3.30;99.90
35043;DHT22;21230;51.170;17.024;2023-03-04T10:46:55;3.30;99.90
35043;DHT22;21230;51.170;17.024;2023-03-04T10:49:23;3.30;99.90
35043;DHT22;21230;51.170;17.024;2023-03-04T10:52:14;3.40;99.90
35043;DHT22;21230;51.170;17.024;2023-03-04T10:54:49;3.40;99.90
35043;DHT22;21230;51.170;17.024;2023-03-04T10:57:22;3.50;99.90
35043;DHT22;21230;51.170;17.024;2023-03-04T11:00:00;3.50;99.90
35043;DHT22;21230;51.170;17.024;2023-03-04T11:02:31;3.60;99.90
35043;DHT22;21230;51.170;17.024;2023-03-04T11:05:18;3.60;99.90
35043;DHT22;21230;51.170;17.024;2023-03-04T11:07:55;3.70;99.90
35043;DHT22;21230;51.170;17.024;2023-03-04T11:15:56;3.80;99.90
35043;DHT22;21230;51.170;17.024;2023-03-04T11:18:48;3.90;99.90
35043;DHT22;21230;51.170;17.024;2023-03-04T11:21:23;3.90;99.90
35043;DHT22;21230;51.170;17.024;2023-03-04T11:24:05;3.90;99.90
35043;DHT22;21230;51.170;17.024;2023-03-04T11:26:40;3.90;99.90
35043;DHT22;21230;51.170;17.024;2023-03-04T11:29:14;4.00;99.90
35043;DHT22;21230;51.170;17.024;2023-03-04T11:31:55;4.00;99.90
35043;DHT22;21230;51.170;17.024;2023-03-04T11:34:40;4.10;99.90
35043;DHT22;21230;51.170;17.024;2023-03-04T11:40:03;4.20;99.90
35043;DHT22;21230;51.170;17.024;2023-03-04T11:45:03;4.30;99.90
35043;DHT22;21230;51.170;17.024;2023-03-04T11:52:53;4.50;99.90
35043;DHT22;21230;51.170;17.024;2023-03-04T11:58:08;4.50;99.90
35043;DHT22;21230;51.170;17.024;2023-03-04T12:00:42;4.40;99.90
35043;DHT22;21230;51.170;17.024;2023-03-04T12:08:35;4.50;99.90
35043;DHT22;21230;51.170;17.024;2023-03-04T12:18:59;4.50;99.90
35043;DHT22;21230;51.170;17.024;2023-03-04T12:21:49;4.50;99.90
35043;DHT22;21230;51.170;17.024;2023-03-04T12:24:30;4.60;99.90
35043;DHT22;21230;51.170;17.024;2023-03-04T12:29:41;4.70;99.90
35043;DHT22;21230;51.170;17.024;2023-03-04T12:37:11;4.70;99.90
35043;DHT22;21230;51.170;17.024;2023-03-04T12:39:47;4.70;99.90
35043;DHT22;21230;51.170;17.024;2023-03-04T12:42:27;4.60;99.90
35043;DHT22;21230;51.170;17.024;2023-03-04T12:55:11;4.50;99.90
35043;DHT22;21230;51.170;17.024;2023-03-04T12:57:38;4.60;99.90
35043;DHT22;21230;51.170;17.024;2023-03-04T13:00:31;4.60;99.90
35043;DHT22;21230;51.170;17.024;2023-03-04T13:06:11;4.50;99.90
35043;DHT22;21230;51.170;17.024;2023-03-04T13:10:36;4.30;99.90
35043;DHT22;21230;51.170;17.024;2023-03-04T13:13:02;4.30;99.90
35043;DHT22;21230;51.170;17.024;2023-03-04T13:18:00;4.30;99.90
35043;DHT22;21230;51.170;17.024;2023-03-04T13:20:38;4.40;99.90
35043;DHT22;21230;51.170;17.024;2023-03-04T13:26:06;4.50;99.90
35043;DHT22;21230;51.170;17.024;2023-03-04T13:28:35;4.40;99.90
35043;DHT22;21230;51.170;17.024;2023-03-04T13:31:17;4.30;99.90
35043;DHT22;21230;51.170;17.024;2023-03-04T13:33:49;4.30;99.90
35043;DHT22;21230;51.170;17.024;2023-03-04T13:36:53;4.30;99.90
35043;DHT22;21230;51.170;17.024;2023-03-04T13:41:53;4.40;99.90
35043;DHT22;21230;51.170;17.024;2023-03-04T13:44:56;4.60;99.90
35043;DHT22;21230;51.170;17.024;2023-03-04T13:47:39;4.60;99.90
35043;DHT22;21230;51.170;17.024;2023-03-04T13:50:32;4.60;99.90
35043;DHT22;21230;51.170;17.024;2023-03-04T13:53:01;4.60;99.90
35043;DHT22;21230;51.170;17.024;2023-03-04T13:55:58;4.70;99.90
35043;DHT22;21230;51.170;17.024;2023-03-04T13:58:26;4.70;99.90
35043;DHT22;21230;51.170;17.024;2023-03-04T14:00:54;4.70;99.90
35043;DHT22;21230;51.170;17.024;2023-03-04T14:03:23;4.70;99.90
35043;DHT22;21230;51.170;17.024;2023-03-04T14:06:18;4.70;99.90
35043;DHT22;21230;51.170;17.024;2023-03-04T14:08:46;4.60;99.90
35043;DHT22;21230;51.170;17.024;2023-03-04T14:14:17;4.80;99.90
35043;DHT22;21230;51.170;17.024;2023-03-04T14:17:05;4.80;99.90
35043;DHT22;21230;51.170;17.024;2023-03-04T14:19:43;4.80;99.90
35043;DHT22;21230;51.170;17.024;2023-03-04T14:22:27;4.80;99.90
35043;DHT22;21230;51.170;17.024;2023-03-04T14:27:25;4.90;99.90
35043;DHT22;21230;51.170;17.024;2023-03-04T14:29:54;5.00;99.90
35043;DHT22;21230;51.170;17.024;2023-03-04T14:32:20;5.00;99.90
35043;DHT22;21230;51.170;17.024;2023-03-04T14:34:47;5.00;99.90
35043;DHT22;21230;51.170;17.024;2023-03-04T14:37:20;5.00;99.90
35043;DHT22;21230;51.170;17.024;2023-03-04T14:39:48;5.10;99.90
35043;DHT22;21230;51.170;17.024;2023-03-04T14:42:14;5.10;99.90
35043;DHT22;21230;51.170;17.024;2023-03-04T14:44:44;5.10;99.90
35043;DHT22;21230;51.170;17.024;2023-03-04T14:47:22;5.10;99.90
35043;DHT22;21230;51.170;17.024;2023-03-04T14:49:51;5.10;99.90
35043;DHT22;21230;51.170;17.024;2023-03-04T14:55:26;4.70;99.90
35043;DHT22;21230;51.170;17.024;2023-03-04T14:57:47;4.60;99.90
35043;DHT22;21230;51.170;17.024;2023-03-04T15:02:39;4.60;99.90
35043;DHT22;21230;51.170;17.024;2023-03-04T15:05:09;4.60;99.90
35043;DHT22;21230;51.170;17.024;2023-03-04T15:07:37;4.60;99.90
35043;DHT22;21230;51.170;17.024;2023-03-04T15:10:05;4.70;99.90
35043;DHT22;21230;51.170;17.024;2023-03-04T15:12:32;4.70;99.90
35043;DHT22;21230;51.170;17.024;2023-03-04T15:15:04;4.80;99.90
35043;DHT22;21230;51.170;17.024;2023-03-04T15:17:56;4.80;99.90
35043;DHT22;21230;51.170;17.024;2023-03-04T15:20:29;4.80;99.90
35043;DHT22;21230;51.170;17.024;2023-03-04T15:22:56;4.80;99.90
35043;DHT22;21230;51.170;17.024;2023-03-04T15:25:22;4.80;99.90
35043;DHT22;21230;51.170;17.024;2023-03-04T15:27:48;4.80;99.90
35043;DHT22;21230;51.170;17.024;2023-03-04T15:30:19;4.80;99.90
35043;DHT22;21230;51.170;17.024;2023-03-04T15:32:45;4.90;99.90
35043;DHT22;21230;51.170;17.024;2023-03-04T15:35:12;4.90;99.90
35043;DHT22;21230;51.170;17.024;2023-03-04T15:37:38;4.90;99.90
35043;DHT22;21230;51.170;17.024;2023-03-04T15:40:04;4.90;99.90
35043;DHT22;21230;51.170;17.024;2023-03-04T15:42:32;5.00;99.90
35043;DHT22;21230;51.170;17.024;2023-03-04T15:44:58;5.00;99.90
35043;DHT22;21230;51.170;17.024;2023-03-04T15:47:24;5.10;99.90
35043;DHT22;21230;51.170;17.024;2023-03-04T15:49:50;5.10;99.90
35043;DHT22;21230;51.170;17.024;2023-03-04T15:52:20;5.10;99.90
35043;DHT22;21230;51.170;17.024;2023-03-04T15:54:46;5.10;99.90
35043;DHT22;21230;51.170;17.024;2023-03-04T15:57:20;5.10;99.90
35043;DHT22;21230;51.170;17.024;2023-03-04T15:59:46;5.20;99.90
35043;DHT22;21230;51.170;17.024;2023-03-04T16:02:18;5.10;99.90
35043;DHT22;21230;51.170;17.024;2023-03-04T16:04:45;5.10;99.90
35043;DHT22;21230;51.170;17.024;2023-03-04T16:07:18;5.10;99.90
35043;DHT22;21230;51.170;17.024;2023-03-04T16:09:44;5.10;99.90
35043;DHT22;21230;51.170;17.024;2023-03-04T16:12:11;5.10;99.90
35043;DHT22;21230;51.170;17.024;2023-03-04T16:14:37;5.10;99.90
35043;DHT22;21230;51.170;17.024;2023-03-04T16:17:02;5.10;99.90
35043;DHT22;21230;51.170;17.024;2023-03-04T16:19:28;5.00;99.90
35043;DHT22;21230;51.170;17.024;2023-03-04T16:21:54;5.00;99.90
35043;DHT22;21230;51.170;17.024;2023-03-04T16:24:20;5.00;99.90
35043;DHT22;21230;51.170;17.024;2023-03-04T16:26:46;5.00;99.90
35043;DHT22;21230;51.170;17.024;2023-03-04T16:29:12;5.00;99.90
35043;DHT22;21230;51.170;17.024;2023-03-04T16:31:38;4.90;99.90
35043;DHT22;21230;51.170;17.024;2023-03-04T16:34:04;4.90;99.90
35043;DHT22;21230;51.170;17.024;2023-03-04T16:36:29;4.90;99.90
35043;DHT22;21230;51.170;17.024;2023-03-04T16:38:56;4.90;99.90
35043;DHT22;21230;51.170;17.024;2023-03-04T16:41:24;4.90;99.90
35043;DHT22;21230;51.170;17.024;2023-03-04T16:43:50;4.90;99.90
35043;DHT22;21230;51.170;17.024;2023-03-04T16:46:16;4.80;99.90
35043;DHT22;21230;51.170;17.024;2023-03-04T16:48:42;4.80;99.90
35043;DHT22;21230;51.170;17.024;2023-03-04T16:51:14;4.70;99.90
35043;DHT22;21230;51.170;17.024;2023-03-04T16:53:42;4.70;99.90
35043;DHT22;21230;51.170;17.024;2023-03-04T16:56:14;4.70;99.90
35043;DHT22;21230;51.170;17.024;2023-03-04T16:58:40;4.70;99.90
35043;DHT22;21230;51.170;17.024;2023-03-04T17:01:06;4.70;99.90
35043;DHT22;21230;51.170;17.024;2023-03-04T17:03:37;4.70;99.90
35043;DHT22;21230;51.170;17.024;2023-03-04T17:06:02;4.70;99.90
35043;DHT22;21230;51.170;17.024;2023-03-04T17:08:28;4.70;99.90
35043;DHT22;21230;51.170;17.024;2023-03-04T17:10:55;4.70;99.90
35043;DHT22;21230;51.170;17.024;2023-03-04T17:13:21;4.70;99.90
35043;DHT22;21230;51.170;17.024;2023-03-04T17:15:47;4.70;99.90
35043;DHT22;21230;51.170;17.024;2023-03-04T17:18:13;4.70;99.90
35043;DHT22;21230;51.170;17.024;2023-03-04T17:20:39;4.60;99.90
35043;DHT22;21230;51.170;17.024;2023-03-04T17:23:05;4.70;99.90
35043;DHT22;21230;51.170;17.024;2023-03-04T17:25:32;4.70;99.90
35043;DHT22;21230;51.170;17.024;2023-03-04T17:27:57;4.60;99.90
35043;DHT22;21230;51.170;17.024;2023-03-04T17:30:23;4.70;99.90
35043;DHT22;21230;51.170;17.024;2023-03-04T17:32:49;4.60;99.90
35043;DHT22;21230;51.170;17.024;2023-03-04T17:35:15;4.60;99.90
35043;DHT22;21230;51.170;17.024;2023-03-04T17:37:42;4.50;99.90
35043;DHT22;21230;51.170;17.024;2023-03-04T17:40:09;4.40;99.90
35043;DHT22;21230;51.170;17.024;2023-03-04T17:42:39;4.50;99.90
35043;DHT22;21230;51.170;17.024;2023-03-04T17:45:05;4.50;99.90
35043;DHT22;21230;51.170;17.024;2023-03-04T17:47:32;4.50;99.90
35043;DHT22;21230;51.170;17.024;2023-03-04T17:49:57;4.40;99.90
35043;DHT22;21230;51.170;17.024;2023-03-04T17:52:23;4.40;99.90
35043;DHT22;21230;51.170;17.024;2023-03-04T17:54:49;4.40;99.90
35043;DHT22;21230;51.170;17.024;2023-03-04T17:57:15;4.40;99.90
35043;DHT22;21230;51.170;17.024;2023-03-04T17:59:42;4.40;99.90
35043;DHT22;21230;51.170;17.024;2023-03-04T18:02:18;4.40;99.90
35043;DHT22;21230;51.170;17.024;2023-03-04T18:04:44;4.40;99.90
35043;DHT22;21230;51.170;17.024;2023-03-04T18:07:12;4.40;99.90
35043;DHT22;21230;51.170;17.024;2023-03-04T18:09:38;4.40;99.90
35043;DHT22;21230;51.170;17.024;2023-03-04T18:12:04;4.30;99.90
35043;DHT22;21230;51.170;17.024;2023-03-04T18:14:30;4.30;99.90
35043;DHT22;21230;51.170;17.024;2023-03-04T18:16:56;4.30;99.90
35043;DHT22;21230;51.170;17.024;2023-03-04T18:19:22;4.30;99.90
35043;DHT22;21230;51.170;17.024;2023-03-04T18:21:48;4.30;99.90
35043;DHT22;21230;51.170;17.024;2023-03-04T18:24:14;4.30;99.90
35043;DHT22;21230;51.170;17.024;2023-03-04T18:26:40;4.30;99.90
35043;DHT22;21230;51.170;17.024;2023-03-04T18:29:06;4.30;99.90
35043;DHT22;21230;51.170;17.024;2023-03-04T18:31:31;4.30;99.90
35043;DHT22;21230;51.170;17.024;2023-03-04T18:33:59;4.30;99.90
35043;DHT22;21230;51.170;17.024;2023-03-04T18:36:25;4.30;99.90
35043;DHT22;21230;51.170;17.024;2023-03-04T18:38:54;4.30;99.90
35043;DHT22;21230;51.170;17.024;2023-03-04T18:41:21;4.20;99.90
35043;DHT22;21230;51.170;17.024;2023-03-04T18:43:47;4.30;99.90
35043;DHT22;21230;51.170;17.024;2023-03-04T18:48:44;4.30;99.90
35043;DHT22;21230;51.170;17.024;2023-03-04T18:51:11;4.20;99.90
35043;DHT22;21230;51.170;17.024;2023-03-04T18:53:37;4.20;99.90
35043;DHT22;21230;51.170;17.024;2023-03-04T18:56:07;4.20;99.90
35043;DHT22;21230;51.170;17.024;2023-03-04T18:58:34;4.20;99.90
35043;DHT22;21230;51.170;17.024;2023-03-04T19:01:02;4.20;99.90
35043;DHT22;21230;51.170;17.024;2023-03-04T19:03:29;4.20;99.90
35043;DHT22;21230;51.170;17.024;2023-03-04T19:05:57;4.20;99.90
35043;DHT22;21230;51.170;17.024;2023-03-04T19:08:23;4.20;99.90
35043;DHT22;21230;51.170;17.024;2023-03-04T19:10:49;4.20;99.90
35043;DHT22;21230;51.170;17.024;2023-03-04T19:13:15;4.10;99.90
35043;DHT22;21230;51.170;17.024;2023-03-04T19:15:46;4.10;99.90
35043;DHT22;21230;51.170;17.024;2023-03-04T19:18:12;4.10;99.90
35043;DHT22;21230;51.170;17.024;2023-03-04T19:20:41;4.00;99.90
35043;DHT22;21230;51.170;17.024;2023-03-04T19:23:08;3.90;99.90
35043;DHT22;21230;51.170;17.024;2023-03-04T19:25:38;3.90;99.90
35043;DHT22;21230;51.170;17.024;2023-03-04T19:28:06;3.80;99.90
35043;DHT22;21230;51.170;17.024;2023-03-04T19:30:39;3.80;99.90
35043;DHT22;21230;51.170;17.024;2023-03-04T19:33:06;3.80;99.90
35043;DHT22;21230;51.170;17.024;2023-03-04T19:35:32;3.70;99.90
35043;DHT22;21230;51.170;17.024;2023-03-04T19:37:59;3.70;99.90
35043;DHT22;21230;51.170;17.024;2023-03-04T19:40:25;3.70;99.90
35043;DHT22;21230;51.170;17.024;2023-03-04T19:42:55;3.70;99.90
35043;DHT22;21230;51.170;17.024;2023-03-04T19:45:25;3.60;99.90
35043;DHT22;21230;51.170;17.024;2023-03-04T19:47:51;3.60;99.90
35043;DHT22;21230;51.170;17.024;2023-03-04T19:50:17;3.60;99.90
35043;DHT22;21230;51.170;17.024;2023-03-04T19:52:43;3.60;99.90
35043;DHT22;21230;51.170;17.024;2023-03-04T19:55:10;3.60;99.90
35043;DHT22;21230;51.170;17.024;2023-03-04T19:57:37;3.50;99.90
35043;DHT22;21230;51.170;17.024;2023-03-04T20:00:04;3.60;99.90
35043;DHT22;21230;51.170;17.024;2023-03-04T20:02:31;3.50;99.90
35043;DHT22;21230;51.170;17.024;2023-03-04T20:04:57;3.60;99.90
35043;DHT22;21230;51.170;17.024;2023-03-04T20:07:30;3.50;99.90